Hlavní strana
METAR-TAF:

METAR-TAF

Letiště :

Vientiane, Laos

zeměpisná šířka: 17-57N, zeměpisná délka: 102-34E, výška: 171 m

Aktuální stav počasí

Zpráva byla vytvořena před 10 minutami, v 07:30 UTC
Východojihovýchodní vítr 4 kt
Teplota 36°C
Vlhkost vzduchu 45%
Tlak 1004 hPa
Viditelnost: 8000 m
Polojasno ve výšce 2000 ft

METAR: VLVT 230730Z 12004KT 8000 SCT020 36/22 Q1004 NOSIG

Čas: 14:40 (07:40 UTC)

Předpověď počasí

Zpráva byla vytvořena před 2 hodinami a 40 minutami, v 05:00 UTC
Předpověď platná od 23 v 06 UTC do 24 v 06 UTC
Severozápadní vítr 4 kt
Viditelnost: 7000 m
Skoro jasno ve výšce 2000 ft
Skoro jasno ve výšce 5000 ft
Dočasný
od 23 v 14 UTC do 23 v 20 UTC
Viditelnost: 4000 m
Skoro jasno ve výšce 5000 ft
kouřmo

TAF: VLVT 230500Z 2306/2406 32004KT 7000 FEW020 FEW050 TEMPO 2314/2320 4000 BR FEW050

Stav a předpovědi počasí z více než 4 000 letišť (zprávy METAR a TAF).

Červené a žluté tečky na mapě představují dostupné meteorologické stanice.

Když kurzor umístíte na tečku, zobrazí se název stanice.

Pak kliknutím zobrazíte stav a předpověď počasí.

Chcete-li změnit mapu, kliknutím na zelené tlačítko se znaménkem +mapu přiblížíte, kliknutím na zelené tlačítko se znaménkem – mapu oddálíte a kliknutím na zelené šipky přejdete na sousední mapy.


METAR-TAF: